100LL.CA
Aviation Fuel Pricing for Canadians
Please upgrade your browser - Tested with IE9, FireFox, Chrome, Safari

Fuel Airports Other Help
Prices Economy Info List METAR/TAF Kneeboard Help

Reference Airport: TROIS-RIVIÈRES, QC
N 46 21 06  W 072 40 50
Provinces to show:

CYRQ TROIS-RIVIÈRES, QC
WEATHER
METARCYRQ 131946Z AUTO 21016KT 9SM -RA BKN019 BKN028 OVC055 08/05 A2936 RMK SLP947
TAFTAF CYRQ 131340Z 1314/1402 20008KT P6SM -RA SCT012 OVC030 TEMPO 1314/1316 4SM -SHRA BR BKN012 OVC030 FM131600 24010G20KT P6SM BKN030 BKN080 TEMPO 1316/1320 P6SM -SHRA FM132000 22010G20KT P6SM -SHRA SCT015 OVC030 TEMPO 1320/1402 4SM -SHRA BR OVC015 BECMG 1322/1324 28008KT RMK FCST BASED ON AUTO OBS. NXT FCST BY 132000Z
OTHER SITES

FlightAware

FltPlan

Google Maps

SkyVector
FUEL
FBO 100LL
member
100LL
public
JETA MOGAS
Opr (2022-05-06)2.5002.5502.630
  Note: $10 charge for purchases smaller than 15L.
Canada Flight Supplement - CYRQ
(opens in new tab/window)


Please Send Updates!

Desktop Version ]  [ Mobile Version ]  [ Disclaimer ]